Time;durP1;ratioP1;P1;durP2;ratioP2;P2;SDS_P1;SDS_P2;PMS_P1;PMS_P2;Temp;Humidity;BMP_temperature;BMP_pressure;BME280_temperature;BME280_humidity;BME280_pressure;Samples;Min_cycle;Max_cycle;Signal;HPM_P1;HPM_P2
2024/02/05 00:00:36;;;;;;;;;;;;;;;8.60;53.41;98999.63;5076063;28;19959;-77
2024/02/05 00:03:01;;;;;;;;;;;;;;;8.64;54.24;98994.84;5093979;28;19958;-79
2024/02/05 00:05:27;;;;;;;;;;;;;;;8.64;54.03;98992.09;5076047;28;19923;-79
2024/02/05 00:07:52;;;;;;;;;;;;;;;8.58;54.93;98986.28;5093429;28;19926;-78
2024/02/05 00:10:17;;;;;;;;;;;;;;;8.57;55.74;98983.94;5093957;28;20029;-78
2024/02/05 00:12:44;;;;;;;;;;;;;;;8.56;56.40;98990.63;5093669;28;20406;-78
2024/02/05 00:15:09;;;;;;;;;;;;;;;8.32;57.03;98987.03;5093805;28;19947;-78
2024/02/05 00:17:35;;;;;;;;;;;;;;;8.02;57.72;98985.03;5075447;28;19966;-77
2024/02/05 00:20:01;;;;;;;;;;;;;;;7.82;59.23;98967.63;5093892;28;19962;-78
2024/02/05 00:22:26;;;;;;;;;;;;;;;7.91;58.64;98978.88;5075462;28;20383;-77
2024/02/05 00:24:51;;;;;;;;;;;;;;;7.92;59.31;98972.19;5075344;28;19987;-78
2024/02/05 00:27:17;;;;;;;;;;;;;;;7.96;59.51;98978.44;5093078;28;19969;-78
2024/02/05 00:29:42;;;;;;;;;;;;;;;7.80;59.45;98975.50;5075260;28;19912;-77
2024/02/05 00:32:07;;;;;;;;;;;;;;;7.25;60.84;98967.44;5093334;28;20324;-78
2024/02/05 00:34:33;;;;;;;;;;;;;;;7.25;61.98;98959.19;5092358;28;19912;-76
2024/02/05 00:36:58;;;;;;;;;;;;;;;7.47;61.86;98962.53;5093185;28;20380;-77
2024/02/05 00:39:23;;;;;;;;;;;;;;;7.58;61.21;98936.47;5093439;28;19912;-79
2024/02/05 00:41:49;;;;;;;;;;;;;;;7.47;60.33;98951.53;5074782;28;19912;-78
2024/02/05 00:44:14;;;;;;;;;;;;;;;7.12;61.62;98939.69;5093242;28;19912;-78
2024/02/05 00:46:40;;;;;;;;;;;;;;;7.05;63.54;98944.50;5075087;28;19918;-77
2024/02/05 00:49:06;;;;;;;;;;;;;;;7.19;62.72;98942.38;5074774;28;19922;-76
2024/02/05 00:51:31;;;;;;;;;;;;;;;7.34;62.11;98946.56;5075038;28;20496;-78
2024/02/05 00:53:57;;;;;;;;;;;;;;;7.48;61.38;98936.56;5092911;28;19920;-79
2024/02/05 00:56:23;;;;;;;;;;;;;;;7.68;60.59;98940.28;5074918;28;19965;-78
2024/02/05 00:58:49;;;;;;;;;;;;;;;7.72;60.61;98930.00;5074908;28;19916;-78
2024/02/05 01:01:14;;;;;;;;;;;;;;;7.65;61.35;98927.38;5074764;28;20395;-78
2024/02/05 01:03:39;;;;;;;;;;;;;;;7.60;61.94;98911.28;5074703;28;19916;-78
2024/02/05 01:06:06;;;;;;;;;;;;;;;7.71;62.01;98911.97;5092652;28;19920;-77
2024/02/05 01:08:31;;;;;;;;;;;;;;;7.72;61.98;98903.28;5073628;28;19924;-79
2024/02/05 01:10:57;;;;;;;;;;;;;;;7.74;61.84;98900.13;5074553;28;19916;-78
2024/02/05 01:13:22;;;;;;;;;;;;;;;7.76;61.67;98900.50;5092805;28;19916;-78
2024/02/05 01:15:48;;;;;;;;;;;;;;;7.64;62.74;98893.59;5092771;28;19923;-77
2024/02/05 01:18:13;;;;;;;;;;;;;;;7.61;62.61;98886.16;5074294;28;20296;-78
2024/02/05 01:20:39;;;;;;;;;;;;;;;7.50;63.62;98868.22;5074454;28;20003;-77
2024/02/05 01:23:04;;;;;;;;;;;;;;;7.38;63.73;98874.25;5074414;28;19962;-78
2024/02/05 01:25:29;;;;;;;;;;;;;;;7.33;64.20;98862.53;5074416;28;19920;-77
2024/02/05 01:27:55;;;;;;;;;;;;;;;7.34;63.71;98871.56;5092209;28;19916;-80
2024/02/05 01:30:20;;;;;;;;;;;;;;;7.26;63.81;98881.06;5074670;28;20012;-79
2024/02/05 01:32:45;;;;;;;;;;;;;;;7.00;64.30;98879.75;5074012;28;20397;-78
2024/02/05 01:35:11;;;;;;;;;;;;;;;6.66;65.39;98865.19;5091279;28;19924;-78
2024/02/05 01:37:36;;;;;;;;;;;;;;;6.49;67.56;98870.44;5070960;28;19916;-78
2024/02/05 01:40:08;;;;;;;;;;;;;;;6.21;69.15;98867.16;5084405;28;19916;-79
2024/02/05 01:42:35;;;;;;;;;;;;;;;6.10;68.96;98878.94;5092051;28;19964;-78
2024/02/05 01:45:00;;;;;;;;;;;;;;;5.88;68.98;98877.53;5092521;28;20307;-78
2024/02/05 01:47:25;;;;;;;;;;;;;;;5.59;70.68;98870.63;5073786;28;19963;-80
2024/02/05 01:49:51;;;;;;;;;;;;;;;5.42;72.16;98877.75;5073692;28;19924;-79
2024/02/05 01:52:18;;;;;;;;;;;;;;;5.29;72.67;98863.69;5092317;28;19916;-78
2024/02/05 01:54:44;;;;;;;;;;;;;;;5.25;72.83;98862.91;5073932;28;19976;-80
2024/02/05 01:57:10;;;;;;;;;;;;;;;5.27;73.77;98859.78;5073830;28;20376;-77
2024/02/05 01:59:36;;;;;;;;;;;;;;;5.11;74.01;98865.72;5074177;28;20011;-77
2024/02/05 02:02:02;;;;;;;;;;;;;;;4.99;73.69;98848.91;5073974;28;20014;-77
2024/02/05 02:04:28;;;;;;;;;;;;;;;4.82;76.52;98851.28;5074149;28;20015;-77
2024/02/05 02:06:53;;;;;;;;;;;;;;;4.87;76.10;98850.13;5091546;28;20475;-77
2024/02/05 02:09:19;;;;;;;;;;;;;;;4.76;76.96;98836.44;5073791;28;20010;-78
2024/02/05 02:11:45;;;;;;;;;;;;;;;4.74;76.10;98844.28;5073566;28;19919;-77
2024/02/05 02:14:10;;;;;;;;;;;;;;;4.71;76.66;98834.09;5092056;28;19914;-76
2024/02/05 02:16:36;;;;;;;;;;;;;;;4.69;78.45;98854.84;5073536;28;19916;-77
2024/02/05 02:19:04;;;;;;;;;;;;;;;4.59;77.12;98872.81;5073186;28;19920;-78
2024/02/05 02:21:33;;;;;;;;;;;;;;;4.45;77.29;98870.13;5073699;28;20394;-77
2024/02/05 02:23:58;;;;;;;;;;;;;;;4.36;77.38;98842.34;5091363;28;19916;-78
2024/02/05 02:26:24;;;;;;;;;;;;;;;4.40;79.01;98835.69;5073855;28;20032;-77
2024/02/05 02:28:49;;;;;;;;;;;;;;;4.42;78.77;98854.47;5073525;28;19923;-78
2024/02/05 02:31:17;;;;;;;;;;;;;;;4.31;77.90;98843.53;5073658;28;19916;-79
2024/02/05 02:33:53;;;;;;;;;;;;;;;4.15;78.78;98848.63;5079862;28;19924;-78
2024/02/05 02:36:24;;;;;;;;;;;;;;;4.01;80.14;98848.59;5073503;28;19916;-78
2024/02/05 02:39:00;;;;;;;;;;;;;;;3.97;81.51;98842.34;5091796;28;19939;-78
2024/02/05 02:41:26;;;;;;;;;;;;;;;3.98;80.65;98841.16;5073489;28;19920;-79
2024/02/05 02:43:54;;;;;;;;;;;;;;;3.92;80.78;98843.50;5073318;28;19926;-77
2024/02/05 02:46:19;;;;;;;;;;;;;;;3.82;82.22;98838.81;5091745;28;20439;-77
2024/02/05 02:48:45;;;;;;;;;;;;;;;3.89;82.56;98852.50;5091331;28;20015;-78
2024/02/05 02:51:11;;;;;;;;;;;;;;;3.83;82.02;98834.91;5073349;28;19916;-78
2024/02/05 02:53:36;;;;;;;;;;;;;;;3.89;83.18;98854.44;5073323;28;20007;-77
2024/02/05 02:56:01;;;;;;;;;;;;;;;3.96;83.30;98857.97;5091526;28;20312;-77
2024/02/05 02:58:27;;;;;;;;;;;;;;;3.86;81.90;98814.22;5073394;28;19924;-78
2024/02/05 03:00:52;;;;;;;;;;;;;;;3.84;83.21;98820.06;5091528;28;19916;-78
2024/02/05 03:03:18;;;;;;;;;;;;;;;3.96;83.35;98838.84;5072961;28;20009;-78
2024/02/05 03:05:43;;;;;;;;;;;;;;;3.86;82.96;98825.16;5073029;28;19917;-76
2024/02/05 03:08:08;;;;;;;;;;;;;;;3.69;83.24;98816.53;5073321;28;20311;-77
2024/02/05 03:10:34;;;;;;;;;;;;;;;3.75;84.03;98811.47;5073450;28;19920;-77
2024/02/05 03:12:59;;;;;;;;;;;;;;;3.87;83.83;98816.56;5073133;28;19916;-76
2024/02/05 03:15:24;;;;;;;;;;;;;;;3.85;81.97;98805.25;5073372;28;20406;-78
2024/02/05 03:17:50;;;;;;;;;;;;;;;3.65;81.56;98825.91;5091310;28;19973;-77
2024/02/05 03:20:31;;;;;;;;;;;;;;;3.65;82.84;98779.44;5073258;28;19916;-78
2024/02/05 03:22:56;;;;;;;;;;;;;;;3.86;81.76;98787.66;5073229;28;19925;-78
2024/02/05 03:25:22;;;;;;;;;;;;;;;4.00;81.43;98790.41;5091405;28;20387;-78
2024/02/05 03:27:47;;;;;;;;;;;;;;;3.85;80.63;98791.59;5091311;28;19923;-77
2024/02/05 03:30:13;;;;;;;;;;;;;;;3.75;82.24;98772.44;5073125;28;19973;-78
2024/02/05 03:32:39;;;;;;;;;;;;;;;3.73;82.42;98753.72;5076030;28;20387;-77
2024/02/05 03:35:04;;;;;;;;;;;;;;;3.76;82.89;98763.84;5094828;28;19981;-77
2024/02/05 03:37:29;;;;;;;;;;;;;;;3.66;83.23;98795.47;5076469;28;19966;-78
2024/02/05 03:39:55;;;;;;;;;;;;;;;3.78;82.97;98769.72;5076677;28;19928;-79
2024/02/05 03:42:20;;;;;;;;;;;;;;;3.81;82.57;98765.41;5076476;28;19920;-78
2024/02/05 03:44:45;;;;;;;;;;;;;;;3.85;82.42;98788.84;5094919;28;19923;-77
2024/02/05 03:47:10;;;;;;;;;;;;;;;3.77;84.27;98776.34;5076408;28;19947;-78
2024/02/05 03:49:36;;;;;;;;;;;;;;;3.81;83.38;98766.19;5076497;28;20010;-77
2024/02/05 03:52:01;;;;;;;;;;;;;;;3.96;81.77;98786.13;5076518;28;19920;-78
2024/02/05 03:54:27;;;;;;;;;;;;;;;4.00;81.76;98787.66;5076306;28;19923;-77
2024/02/05 03:56:52;;;;;;;;;;;;;;;3.99;81.64;98790.78;5094234;28;19916;-78
2024/02/05 03:59:17;;;;;;;;;;;;;;;3.85;81.42;98783.38;5094511;28;20311;-77
2024/02/05 04:01:43;;;;;;;;;;;;;;;3.78;82.96;98782.59;5093886;28;19916;-76
2024/02/05 04:04:09;;;;;;;;;;;;;;;3.83;82.96;98774.00;5076312;28;19927;-79
2024/02/05 04:06:35;;;;;;;;;;;;;;;3.86;82.02;98773.25;5093712;28;19920;-78
2024/02/05 04:09:00;;;;;;;;;;;;;;;3.85;82.09;98785.34;5076080;28;19981;-77
2024/02/05 04:11:26;;;;;;;;;;;;;;;3.81;82.57;98790.78;5092490;28;20323;-78
2024/02/05 04:13:51;;;;;;;;;;;;;;;3.81;82.39;98787.25;5076219;28;19920;-78
2024/02/05 04:16:17;;;;;;;;;;;;;;;3.71;83.22;98796.25;5093801;28;19916;-78
2024/02/05 04:18:42;;;;;;;;;;;;;;;3.69;82.88;98780.22;5075530;28;20257;-78
2024/02/05 04:21:07;;;;;;;;;;;;;;;3.68;83.37;98786.84;5092932;28;19916;-78
2024/02/05 04:23:33;;;;;;;;;;;;;;;3.75;82.98;98794.28;5075833;28;19923;-77
2024/02/05 04:26:00;;;;;;;;;;;;;;;3.75;82.98;98789.59;5075548;28;20303;-77
2024/02/05 04:28:25;;;;;;;;;;;;;;;3.82;81.88;98797.03;5075577;28;20010;-77
2024/02/05 04:30:50;;;;;;;;;;;;;;;3.84;82.19;98803.69;5093294;28;20058;-78
2024/02/05 04:33:16;;;;;;;;;;;;;;;3.83;83.08;98809.53;5093428;28;19916;-78
2024/02/05 04:35:41;;;;;;;;;;;;;;;3.80;83.11;98797.41;5075523;28;19920;-79
2024/02/05 04:38:06;;;;;;;;;;;;;;;3.71;82.49;98820.81;5093724;28;20443;-77
2024/02/05 04:40:32;;;;;;;;;;;;;;;3.66;82.30;98802.88;5075292;28;19922;-79
2024/02/05 04:42:57;;;;;;;;;;;;;;;3.69;82.78;98827.47;5075184;28;20380;-77
2024/02/05 04:45:23;;;;;;;;;;;;;;;3.66;83.53;98820.06;5091948;28;19920;-77
2024/02/05 04:47:48;;;;;;;;;;;;;;;3.68;83.05;98795.06;5093387;28;20369;-77
2024/02/05 04:50:14;;;;;;;;;;;;;;;3.78;83.18;98823.56;5075391;28;19916;-77
2024/02/05 04:52:39;;;;;;;;;;;;;;;3.81;83.30;98820.06;5075105;28;19922;-76
2024/02/05 04:55:04;;;;;;;;;;;;;;;3.82;83.50;98841.53;5091598;28;19919;-78
2024/02/05 04:57:30;;;;;;;;;;;;;;;3.86;82.79;98845.06;5075037;28;19911;-79
2024/02/05 04:59:55;;;;;;;;;;;;;;;3.77;82.94;98830.22;5093082;28;19912;-77
2024/02/05 05:02:20;;;;;;;;;;;;;;;3.73;83.20;98835.69;5074844;28;20379;-78
2024/02/05 05:04:46;;;;;;;;;;;;;;;3.63;83.04;98852.81;5092027;28;19923;-79
2024/02/05 05:07:11;;;;;;;;;;;;;;;3.46;83.73;98801.66;5091564;28;19924;-77
2024/02/05 05:09:36;;;;;;;;;;;;;;;3.52;84.16;98836.41;5074376;28;20015;-77
2024/02/05 05:12:01;;;;;;;;;;;;;;;3.60;84.86;98810.66;5092887;28;19916;-80
2024/02/05 05:14:27;;;;;;;;;;;;;;;3.56;84.64;98820.78;5074217;28;19919;-77
2024/02/05 05:16:52;;;;;;;;;;;;;;;3.39;84.79;98816.06;5074260;28;19999;-78
2024/02/05 05:19:17;;;;;;;;;;;;;;;3.38;84.88;98808.25;5092643;28;20081;-80
2024/02/05 05:21:43;;;;;;;;;;;;;;;3.41;84.97;98821.94;5092843;28;19912;-78
2024/02/05 05:24:08;;;;;;;;;;;;;;;3.45;84.63;98802.81;5074441;28;19924;-78
2024/02/05 05:26:33;;;;;;;;;;;;;;;3.54;84.31;98786.84;5074496;28;19916;-80
2024/02/05 05:28:59;;;;;;;;;;;;;;;3.67;84.04;98796.25;5074307;28;19922;-78
2024/02/05 05:31:24;;;;;;;;;;;;;;;3.76;81.94;98796.63;5092870;28;19927;-78
2024/02/05 05:33:49;;;;;;;;;;;;;;;3.66;82.69;98792.72;5074511;28;20685;-78
2024/02/05 05:36:15;;;;;;;;;;;;;;;3.75;82.92;98799.75;5074474;28;19920;-79
2024/02/05 05:38:40;;;;;;;;;;;;;;;3.79;84.39;98809.53;5092459;28;19916;-79
2024/02/05 05:41:05;;;;;;;;;;;;;;;3.66;82.61;98814.59;5074202;28;19952;-78
2024/02/05 05:43:31;;;;;;;;;;;;;;;3.70;82.54;98803.66;5074282;28;19916;-79
2024/02/05 05:45:56;;;;;;;;;;;;;;;3.76;82.78;98802.09;5091031;28;20424;-79
2024/02/05 05:48:22;;;;;;;;;;;;;;;3.75;81.99;98797.81;5074064;28;19919;-78
2024/02/05 05:50:47;;;;;;;;;;;;;;;3.65;82.80;98814.97;5092265;28;19916;-78
2024/02/05 05:53:13;;;;;;;;;;;;;;;3.56;83.42;98817.28;5073833;28;19916;-80
2024/02/05 05:55:38;;;;;;;;;;;;;;;3.57;84.06;98827.81;5073700;28;19916;-77
2024/02/05 05:58:03;;;;;;;;;;;;;;;3.50;84.10;98805.16;5092131;28;20293;-77
2024/02/05 06:00:29;;;;;;;;;;;;;;;3.52;85.32;98811.81;5074099;28;19916;-80
2024/02/05 06:02:55;;;;;;;;;;;;;;;3.62;85.86;98841.09;5090615;28;20371;-77
2024/02/05 06:05:21;;;;;;;;;;;;;;;3.67;84.95;98837.22;5073847;28;19922;-78
2024/02/05 06:07:46;;;;;;;;;;;;;;;3.75;84.86;98843.47;5090561;28;19921;-78
2024/02/05 06:10:11;;;;;;;;;;;;;;;3.93;84.26;98844.28;5073943;28;20018;-77
2024/02/05 06:12:37;;;;;;;;;;;;;;;4.05;82.81;98852.09;5073651;28;19923;-78
2024/02/05 06:15:03;;;;;;;;;;;;;;;4.04;82.40;98845.06;5081880;28;19920;-78
2024/02/05 06:17:28;;;;;;;;;;;;;;;4.15;82.22;98839.63;5059678;28;19970;-78
2024/02/05 06:19:54;;;;;;;;;;;;;;;4.19;81.79;98827.53;5065600;28;19971;-76
2024/02/05 06:22:20;;;;;;;;;;;;;;;4.41;81.04;98839.22;5074090;28;19920;-79
2024/02/05 06:24:45;;;;;;;;;;;;;;;4.54;81.09;98837.66;5073532;28;20307;-78
2024/02/05 06:27:10;;;;;;;;;;;;;;;4.66;80.30;98817.31;5073347;28;19957;-77
2024/02/05 06:29:36;;;;;;;;;;;;;;;4.67;79.24;98824.34;5072228;28;20394;-77
2024/02/05 06:32:01;;;;;;;;;;;;;;;4.69;80.38;98816.53;5073587;28;19916;-78
2024/02/05 06:34:26;;;;;;;;;;;;;;;4.71;81.70;98814.94;5074086;28;20425;-79
2024/02/05 06:36:52;;;;;;;;;;;;;;;4.77;81.73;98820.81;5092434;28;20008;-78
2024/02/05 06:39:17;;;;;;;;;;;;;;;4.75;82.93;98818.47;5073638;28;19916;-78
2024/02/05 06:41:42;;;;;;;;;;;;;;;4.95;83.36;98812.53;5073806;28;20294;-78
2024/02/05 06:44:08;;;;;;;;;;;;;;;5.06;81.95;98827.78;5090480;28;19946;-78
2024/02/05 06:46:33;;;;;;;;;;;;;;;5.31;82.35;98833.94;5073677;28;19916;-78
2024/02/05 06:48:58;;;;;;;;;;;;;;;5.44;81.92;98815.09;5092038;28;20011;-79
2024/02/05 06:51:24;;;;;;;;;;;;;;;5.58;79.77;98804.06;5073992;28;20022;-77
2024/02/05 06:53:49;;;;;;;;;;;;;;;5.76;79.54;98822.34;5091828;28;19916;-78
2024/02/05 06:56:15;;;;;;;;;;;;;;;5.91;80.03;98823.84;5090651;28;20395;-79
2024/02/05 06:58:40;;;;;;;;;;;;;;;6.00;77.48;98815.94;5073606;28;20451;-80
2024/02/05 07:01:05;;;;;;;;;;;;;;;6.37;73.69;98826.25;5061085;28;19924;-79
2024/02/05 07:03:31;;;;;;;;;;;;;;;6.59;74.70;98811.13;5091340;28;19939;-78
2024/02/05 07:05:56;;;;;;;;;;;;;;;6.87;72.41;98805.34;5074026;28;20364;-77
2024/02/05 07:08:21;;;;;;;;;;;;;;;7.03;68.11;98813.03;5077449;28;20384;-77
2024/02/05 07:10:47;;;;;;;;;;;;;;;7.26;66.38;98821.41;5077551;28;20034;-78
2024/02/05 07:13:12;;;;;;;;;;;;;;;7.66;64.90;98825.19;5093926;28;19919;-78
2024/02/05 07:15:38;;;;;;;;;;;;;;;7.84;62.62;98816.69;5077249;28;19982;-79
2024/02/05 07:18:03;;;;;;;;;;;;;;;7.79;59.49;98817.16;5077063;28;19912;-79
2024/02/05 07:20:28;;;;;;;;;;;;;;;8.03;60.19;98824.25;5077257;28;19916;-78
2024/02/05 07:22:54;;;;;;;;;;;;;;;8.28;60.15;98828.59;5093728;28;19919;-79
2024/02/05 07:25:19;;;;;;;;;;;;;;;8.65;58.90;98814.63;5076941;28;19912;-79
2024/02/05 07:27:45;;;;;;;;;;;;;;;9.07;56.72;98828.81;5093951;28;19916;-79
2024/02/05 07:30:10;;;;;;;;;;;;;;;9.34;59.72;98832.22;5074265;28;20373;-79
2024/02/05 07:32:36;;;;;;;;;;;;;;;9.55;58.60;98822.72;5073601;28;19917;-79
2024/02/05 07:35:01;;;;;;;;;;;;;;;9.64;58.57;98817.41;5084337;28;19994;-80
2024/02/05 07:37:27;;;;;;;;;;;;;;;9.60;56.08;98822.22;5091983;28;19916;-78
2024/02/05 07:39:52;;;;;;;;;;;;;;;9.65;57.75;98811.44;5075511;28;19916;-78
2024/02/05 07:42:17;;;;;;;;;;;;;;;9.52;57.98;98818.84;5092466;28;20284;-78
2024/02/05 07:44:43;;;;;;;;;;;;;;;9.64;59.18;98800.88;5094265;28;20303;-79
2024/02/05 07:47:08;;;;;;;;;;;;;;;9.76;58.01;98806.47;5094104;28;19916;-78
2024/02/05 07:49:34;;;;;;;;;;;;;;;9.75;59.03;98815.97;5094458;28;20284;-77
2024/02/05 07:51:59;;;;;;;;;;;;;;;9.87;56.98;98819.28;5075905;28;19912;-78
2024/02/05 07:54:27;;;;;;;;;;;;;;;9.93;55.50;98825.84;5075537;28;19912;-78
2024/02/05 07:56:52;;;;;;;;;;;;;;;10.24;55.69;98838.16;5075938;28;19919;-78
2024/02/05 07:59:17;;;;;;;;;;;;;;;10.27;55.59;98829.00;5093830;28;20304;-79
2024/02/05 08:01:43;;;;;;;;;;;;;;;10.40;54.97;98823.56;5075702;28;20064;-79
2024/02/05 08:04:08;;;;;;;;;;;;;;;10.31;53.71;98823.41;5094121;28;19912;-79
2024/02/05 08:06:33;;;;;;;;;;;;;;;10.42;53.28;98827.47;5075318;28;19977;-79
2024/02/05 08:08:59;;;;;;;;;;;;;;;10.61;53.29;98840.38;5093784;28;19928;-79
2024/02/05 08:11:24;;;;;;;;;;;;;;;10.71;52.89;98833.03;5093641;28;19919;-78
2024/02/05 08:13:50;;;;;;;;;;;;;;;10.64;53.50;98826.91;5075684;28;19923;-79
2024/02/05 08:16:16;;;;;;;;;;;;;;;10.61;53.39;98821.03;5089580;28;19916;-77
2024/02/05 08:18:41;;;;;;;;;;;;;;;10.96;53.57;98829.63;5084063;28;19923;-80
2024/02/05 08:21:06;;;;;;;;;;;;;;;11.12;51.57;98826.03;5092348;28;19912;-78
2024/02/05 08:23:32;;;;;;;;;;;;;;;11.55;50.42;98834.69;5093670;28;19956;-79
2024/02/05 08:25:57;;;;;;;;;;;;;;;12.00;50.98;98830.97;5093522;28;19954;-79
2024/02/05 08:28:22;;;;;;;;;;;;;;;12.35;45.97;98787.53;5075139;28;19923;-79
2024/02/05 08:30:47;;;;;;;;;;;;;;;13.01;48.48;98805.88;5075285;28;19920;-79
2024/02/05 08:33:13;;;;;;;;;;;;;;;12.90;48.08;98791.59;5075263;28;19969;-78
2024/02/05 08:35:40;;;;;;;;;;;;;;;13.19;43.88;98816.34;5093171;28;19913;-79
2024/02/05 08:38:05;;;;;;;;;;;;;;;13.73;46.47;98808.38;5093363;28;19939;-78
2024/02/05 08:40:31;;;;;;;;;;;;;;;14.25;42.68;98820.63;5093154;28;20565;-79
2024/02/05 08:42:56;;;;;;;;;;;;;;;15.18;37.18;98825.91;5075071;28;19916;-77
2024/02/05 08:45:22;;;;;;;;;;;;;;;15.93;34.63;98812.94;5075097;28;19916;-77
2024/02/05 08:47:48;;;;;;;;;;;;;;;16.55;33.45;98824.25;5093080;28;19916;-79
2024/02/05 08:50:14;;;;;;;;;;;;;;;17.06;32.05;98821.28;5074956;28;19922;-80
2024/02/05 08:52:39;;;;;;;;;;;;;;;17.15;31.52;98814.88;5074948;28;19915;-79
2024/02/05 08:55:05;;;;;;;;;;;;;;;17.30;31.66;98828.88;5092732;28;20371;-79
2024/02/05 08:57:30;;;;;;;;;;;;;;;17.47;30.72;98821.56;5074985;28;20356;-78
2024/02/05 08:59:55;;;;;;;;;;;;;;;17.67;30.06;98812.53;5074220;28;19912;-79
2024/02/05 09:02:21;;;;;;;;;;;;;;;17.60;30.45;98810.88;5092803;28;19919;-78
2024/02/05 09:04:46;;;;;;;;;;;;;;;17.67;30.83;98815.31;5092435;28;19916;-78
2024/02/05 09:07:11;;;;;;;;;;;;;;;18.00;29.72;98827.06;5092169;28;19996;-78
2024/02/05 09:09:37;;;;;;;;;;;;;;;18.35;29.34;98824.31;5074036;28;20430;-78
2024/02/05 09:12:02;;;;;;;;;;;;;;;18.45;29.57;98822.91;5074646;28;19923;-76
2024/02/05 09:14:28;;;;;;;;;;;;;;;18.60;29.08;98825.72;5091114;28;19912;-78
2024/02/05 09:16:53;;;;;;;;;;;;;;;18.64;28.70;98827.03;5092635;28;19916;-79
2024/02/05 09:19:18;;;;;;;;;;;;;;;18.80;29.02;98817.34;5092270;28;19916;-78
2024/02/05 09:21:44;;;;;;;;;;;;;;;18.93;28.72;98828.94;5092366;28;19920;-79
2024/02/05 09:24:09;;;;;;;;;;;;;;;19.02;27.47;98828.81;5092066;28;19912;-77
2024/02/05 09:26:35;;;;;;;;;;;;;;;19.01;27.86;98820.91;5074528;28;19913;-78
2024/02/05 09:29:00;;;;;;;;;;;;;;;19.13;27.57;98819.00;5073450;28;19999;-79
2024/02/05 09:31:25;;;;;;;;;;;;;;;19.29;27.75;98813.56;5092503;28;19951;-77
2024/02/05 09:33:51;;;;;;;;;;;;;;;19.23;28.30;98823.19;5092357;28;19951;-77
2024/02/05 09:36:16;;;;;;;;;;;;;;;19.29;27.75;98812.81;5073903;28;19916;-78
2024/02/05 09:38:42;;;;;;;;;;;;;;;19.37;27.55;98825.13;5073917;28;19999;-80
2024/02/05 09:41:09;;;;;;;;;;;;;;;19.38;27.56;98821.84;5090620;28;20372;-78
2024/02/05 09:43:34;;;;;;;;;;;;;;;19.54;27.80;98819.72;5092061;28;19912;-76
2024/02/05 09:46:07;;;;;;;;;;;;;;;19.62;27.29;98806.81;5091866;28;19918;-78
2024/02/05 09:48:34;;;;;;;;;;;;;;;19.76;27.61;98815.09;5091863;28;19919;-77
2024/02/05 09:51:00;;;;;;;;;;;;;;;19.85;27.57;98781.25;5073712;28;19916;-78
2024/02/05 09:53:25;;;;;;;;;;;;;;;19.84;27.76;98795.78;5091528;28;20394;-78
2024/02/05 09:55:51;;;;;;;;;;;;;;;20.00;27.40;98775.53;5091876;28;19948;-79
2024/02/05 09:58:16;;;;;;;;;;;;;;;20.08;27.56;98770.22;5091711;28;20375;-79
2024/02/05 10:00:42;;;;;;;;;;;;;;;20.04;27.87;98759.22;5090715;28;19980;-79
2024/02/05 10:03:08;;;;;;;;;;;;;;;20.17;27.91;98753.19;5073424;28;19912;-79
2024/02/05 10:05:36;;;;;;;;;;;;;;;20.09;27.71;98750.06;5073758;28;19919;-78
2024/02/05 10:08:03;;;;;;;;;;;;;;;20.16;27.74;98734.81;5089869;28;19920;-78
2024/02/05 10:10:29;;;;;;;;;;;;;;;20.04;27.74;98741.63;5073623;28;20361;-78
2024/02/05 10:12:55;;;;;;;;;;;;;;;20.13;28.31;98733.78;5073177;28;19912;-77
2024/02/05 10:15:21;;;;;;;;;;;;;;;20.34;28.33;98726.03;5073396;28;20121;-78
2024/02/05 10:17:46;;;;;;;;;;;;;;;20.25;27.39;98729.03;5090143;28;20039;-79
2024/02/05 10:20:13;;;;;;;;;;;;;;;20.27;27.73;98740.50;5091545;28;20374;-79
2024/02/05 10:22:45;;;;;;;;;;;;;;;20.44;27.83;98735.00;5090349;28;20421;-78
2024/02/05 10:25:11;;;;;;;;;;;;;;;20.31;27.43;98727.75;5091430;28;19919;-78
2024/02/05 10:27:36;;;;;;;;;;;;;;;20.14;27.81;98717.72;5073189;28;20489;-80
2024/02/05 10:30:02;;;;;;;;;;;;;;;20.13;27.78;98710.59;5089911;28;19999;-79
2024/02/05 10:32:27;;;;;;;;;;;;;;;20.13;27.81;98722.56;5091566;28;19919;-79
2024/02/05 10:34:52;;;;;;;;;;;;;;;19.96;27.94;98718.88;5091372;28;19962;-79
2024/02/05 10:37:21;;;;;;;;;;;;;;;20.01;27.67;98706.19;5073155;28;19918;-77
2024/02/05 10:39:46;;;;;;;;;;;;;;;19.97;27.98;98714.81;5091358;28;20411;-78
2024/02/05 10:42:12;;;;;;;;;;;;;;;19.96;28.13;98716.06;5076928;28;19912;-77
2024/02/05 10:44:37;;;;;;;;;;;;;;;20.06;27.89;98716.66;5095396;28;19918;-80
2024/02/05 10:47:03;;;;;;;;;;;;;;;20.03;27.60;98721.22;5094046;28;19916;-79
2024/02/05 10:49:29;;;;;;;;;;;;;;;20.12;27.63;98720.28;5095181;28;19920;-78
2024/02/05 10:51:55;;;;;;;;;;;;;;;20.13;27.89;98725.34;5076884;28;19923;-76
2024/02/05 10:54:22;;;;;;;;;;;;;;;20.13;27.00;98707.78;5076918;28;19912;-79
2024/02/05 10:56:49;;;;;;;;;;;;;;;20.15;28.06;98706.00;5076960;28;19967;-78
2024/02/05 10:59:15;;;;;;;;;;;;;;;20.15;28.15;98711.59;5076825;28;20028;-76
2024/02/05 11:01:44;;;;;;;;;;;;;;;20.07;27.65;98713.38;5076829;28;19927;-78
2024/02/05 11:04:10;;;;;;;;;;;;;;;19.92;27.54;98707.91;5076706;28;19916;-78
2024/02/05 11:06:42;;;;;;;;;;;;;;;19.85;28.40;98701.97;5076562;28;20049;-78
2024/02/05 11:09:10;;;;;;;;;;;;;;;20.08;27.62;98711.31;5094580;28;19972;-78
2024/02/05 11:11:37;;;;;;;;;;;;;;;20.04;27.63;98711.53;5076745;28;20375;-78
2024/02/05 11:14:05;;;;;;;;;;;;;;;19.97;27.58;98709.19;5076626;28;19942;-77
2024/02/05 11:16:31;;;;;;;;;;;;;;;19.79;27.84;98715.19;5076178;28;19916;-77
2024/02/05 11:18:57;;;;;;;;;;;;;;;19.91;28.51;98695.16;5076536;28;19918;-78
2024/02/05 11:21:34;;;;;;;;;;;;;;;20.02;28.50;98708.47;5076044;28;20000;-78
2024/02/05 11:23:59;;;;;;;;;;;;;;;20.04;27.38;98694.72;5094521;28;19919;-77
2024/02/05 11:26:25;;;;;;;;;;;;;;;20.03;28.71;98690.38;5076443;28;19912;-79
2024/02/05 11:28:53;;;;;;;;;;;;;;;20.14;27.43;98687.63;5076274;28;19927;-77
2024/02/05 11:31:18;;;;;;;;;;;;;;;20.21;27.76;98697.59;5063354;28;19919;-78
2024/02/05 11:33:44;;;;;;;;;;;;;;;20.15;27.48;98691.19;5094227;28;20006;-76
2024/02/05 11:36:13;;;;;;;;;;;;;;;20.09;27.50;98685.56;5080997;28;19920;-79
2024/02/05 11:38:40;;;;;;;;;;;;;;;20.22;27.26;98682.31;5076088;28;19935;-79
2024/02/05 11:41:05;;;;;;;;;;;;;;;20.19;26.97;98686.88;5094416;28;19912;-76
2024/02/05 11:43:30;;;;;;;;;;;;;;;20.13;26.72;98690.97;5094349;28;19998;-79
2024/02/05 11:45:56;;;;;;;;;;;;;;;20.20;26.87;98665.97;5094008;28;20007;-77
2024/02/05 11:48:21;;;;;;;;;;;;;;;20.29;27.49;98667.81;5075657;28;19975;-78
2024/02/05 11:50:47;;;;;;;;;;;;;;;20.38;26.76;98652.81;5075962;28;20390;-78
2024/02/05 11:53:20;;;;;;;;;;;;;;;20.37;26.71;98685.75;5075164;28;20005;-78
2024/02/05 11:55:45;;;;;;;;;;;;;;;20.27;27.25;98682.34;5075829;28;19924;-79
2024/02/05 11:58:11;;;;;;;;;;;;;;;20.25;26.24;98681.31;5094021;28;19981;-79
2024/02/05 12:00:37;;;;;;;;;;;;;;;20.05;27.11;98673.06;5094087;28;19916;-78
2024/02/05 12:03:04;;;;;;;;;;;;;;;20.10;26.15;98666.69;5075760;28;19920;-79
2024/02/05 12:05:29;;;;;;;;;;;;;;;20.15;26.40;98669.53;5075933;28;19927;-79
2024/02/05 12:07:55;;;;;;;;;;;;;;;20.30;26.69;98667.31;5093284;28;19920;-78
2024/02/05 12:10:21;;;;;;;;;;;;;;;20.33;26.19;98668.38;5093907;28;19951;-79
2024/02/05 12:12:46;;;;;;;;;;;;;;;20.37;26.09;98665.34;5075717;28;19923;-80
2024/02/05 12:15:22;;;;;;;;;;;;;;;20.33;26.07;98673.97;5093595;28;19924;-79
2024/02/05 12:17:47;;;;;;;;;;;;;;;20.29;26.53;98656.59;5075318;28;19916;-77
2024/02/05 12:20:19;;;;;;;;;;;;;;;20.32;26.10;98658.41;5093666;28;19916;-77
2024/02/05 12:22:48;;;;;;;;;;;;;;;20.30;26.50;98666.56;5070834;28;20399;-79
2024/02/05 12:25:14;;;;;;;;;;;;;;;20.21;26.45;98667.53;5093612;28;19973;-78
2024/02/05 12:27:39;;;;;;;;;;;;;;;20.34;26.54;98657.91;5075243;28;20312;-77
2024/02/05 12:30:05;;;;;;;;;;;;;;;20.33;26.05;98659.19;5074738;28;19916;-77
2024/02/05 12:32:31;;;;;;;;;;;;;;;20.26;26.41;98661.16;5075246;28;19974;-77
2024/02/05 12:34:59;;;;;;;;;;;;;;;20.25;26.27;98656.06;5093581;28;19947;-79
2024/02/05 12:37:25;;;;;;;;;;;;;;;20.39;25.83;98648.75;5093356;28;19912;-79
2024/02/05 12:39:52;;;;;;;;;;;;;;;20.41;26.08;98657.44;5074967;28;19919;-80
2024/02/05 12:42:17;;;;;;;;;;;;;;;20.38;26.12;98662.00;5074675;28;19963;-79
2024/02/05 12:44:43;;;;;;;;;;;;;;;20.38;26.02;98653.59;5074928;28;19958;-79